Time;durP1;ratioP1;P1;durP2;ratioP2;P2;SDS_P1;SDS_P2;PMS_P1;PMS_P2;Temp;Humidity;BMP_temperature;BMP_pressure;BME280_temperature;BME280_humidity;BME280_pressure;Samples;Min_cycle;Max_cycle;Signal;HPM_P1;HPM_P2
2024/02/12 00:00:23;;;;;;;4.07;3.17;;;19.30;58.50;;;;;;4997485;28;20554;-67
2024/02/12 00:02:49;;;;;;;3.47;2.72;;;19.30;58.40;;;;;;5021805;28;20582;-67
2024/02/12 00:05:14;;;;;;;3.85;2.78;;;19.30;58.40;;;;;;5016923;28;20112;-67
2024/02/12 00:07:40;;;;;;;4.38;2.78;;;19.30;58.40;;;;;;5022664;28;20446;-66
2024/02/12 00:10:11;;;;;;;4.97;2.92;;;19.30;58.40;;;;;;5020905;28;20033;-67
2024/02/12 00:12:37;;;;;;;4.28;2.60;;;19.30;58.40;;;;;;5016622;28;20034;-67
2024/02/12 00:15:05;;;;;;;3.40;2.72;;;19.30;58.40;;;;;;5017420;28;20108;-68
2024/02/12 00:17:30;;;;;;;4.63;2.83;;;19.30;58.40;;;;;;5020951;28;20025;-67
2024/02/12 00:19:56;;;;;;;4.35;2.67;;;19.30;58.40;;;;;;5016623;28;20040;-67
2024/02/12 00:22:23;;;;;;;4.25;2.72;;;19.30;58.40;;;;;;5018846;28;20038;-67
2024/02/12 00:24:49;;;;;;;4.28;2.80;;;19.30;58.40;;;;;;5022891;28;20455;-67
2024/02/12 00:27:16;;;;;;;4.60;3.17;;;19.30;58.40;;;;;;5002231;28;20079;-68
2024/02/12 00:29:45;;;;;;;3.33;2.60;;;19.30;58.30;;;;;;5019228;28;20041;-69
2024/02/12 00:32:11;;;;;;;3.72;2.22;;;19.30;58.40;;;;;;5021375;28;20029;-67
2024/02/12 00:34:37;;;;;;;3.70;2.45;;;19.30;58.30;;;;;;5021839;28;20346;-67
2024/02/12 00:37:02;;;;;;;3.80;2.17;;;19.30;58.30;;;;;;5021805;28;20041;-67
2024/02/12 00:39:30;;;;;;;3.55;3.13;;;19.30;58.30;;;;;;5017323;28;20083;-67
2024/02/12 00:41:57;;;;;;;3.72;2.03;;;19.30;58.30;;;;;;5000269;28;20053;-67
2024/02/12 00:44:22;;;;;;;4.57;2.72;;;19.30;58.30;;;;;;5016833;28;20041;-67
2024/02/12 00:46:48;;;;;;;2.40;1.90;;;19.30;58.30;;;;;;5016592;28;20041;-67
2024/02/12 00:49:17;;;;;;;3.45;2.42;;;19.30;58.30;;;;;;5019446;28;20056;-68
2024/02/12 00:51:43;;;;;;;3.50;2.10;;;19.30;58.30;;;;;;5018552;28;20044;-67
2024/02/12 00:54:10;;;;;;;2.83;2.08;;;19.30;58.30;;;;;;5015117;28;20030;-67
2024/02/12 00:56:37;;;;;;;3.40;2.58;;;19.30;58.30;;;;;;5017915;28;20033;-67
2024/02/12 00:59:03;;;;;;;2.95;2.22;;;19.30;58.30;;;;;;5004084;28;20038;-63
2024/02/12 01:01:28;;;;;;;2.90;2.13;;;19.30;58.30;;;;;;5019184;28;20033;-67
2024/02/12 01:03:54;;;;;;;2.38;2.10;;;19.30;58.30;;;;;;5015871;28;20032;-67
2024/02/12 01:06:19;;;;;;;4.15;1.90;;;19.20;58.30;;;;;;5019894;28;20504;-68
2024/02/12 01:08:45;;;;;;;3.58;1.95;;;19.20;58.30;;;;;;5019165;28;20477;-67
2024/02/12 01:11:11;;;;;;;2.85;2.20;;;19.20;58.40;;;;;;5018137;28;20064;-66
2024/02/12 01:13:36;;;;;;;2.50;2.30;;;19.20;58.40;;;;;;5019491;28;20033;-67
2024/02/12 01:16:02;;;;;;;2.35;2.10;;;19.20;58.50;;;;;;5003637;28;20045;-67
2024/02/12 01:18:28;;;;;;;2.38;1.88;;;19.10;58.50;;;;;;5019465;28;20112;-67
2024/02/12 01:20:53;;;;;;;4.22;2.38;;;19.10;58.60;;;;;;5020776;28;20080;-66
2024/02/12 01:23:19;;;;;;;2.70;1.70;;;19.10;58.70;;;;;;5010585;28;20025;-66
2024/02/12 01:25:47;;;;;;;2.83;2.15;;;19.10;58.70;;;;;;5021796;28;20570;-67
2024/02/12 01:28:15;;;;;;;2.60;2.00;;;19.00;58.80;;;;;;5020269;28;20484;-67
2024/02/12 01:30:42;;;;;;;2.90;1.80;;;19.00;58.80;;;;;;5019661;28;20108;-67
2024/02/12 01:33:07;;;;;;;3.55;2.08;;;19.00;58.90;;;;;;5023231;28;20037;-67
2024/02/12 01:35:33;;;;;;;2.88;2.00;;;19.00;58.90;;;;;;5023798;28;20044;-67
2024/02/12 01:37:59;;;;;;;2.33;1.90;;;19.00;59.00;;;;;;5017190;28;20628;-67
2024/02/12 01:40:24;;;;;;;2.83;1.92;;;18.90;58.90;;;;;;5001942;28;20033;-68
2024/02/12 01:42:50;;;;;;;2.70;2.25;;;18.90;59.00;;;;;;5007790;28;20025;-68
2024/02/12 01:45:23;;;;;;;2.30;1.52;;;18.90;59.00;;;;;;5003670;28;20034;-67
2024/02/12 01:47:57;;;;;;;2.55;2.00;;;18.90;59.00;;;;;;5018404;28;20064;-68
2024/02/12 01:50:24;;;;;;;2.65;1.63;;;18.90;59.00;;;;;;4999978;28;20464;-68
2024/02/12 01:52:50;;;;;;;2.50;1.77;;;18.90;59.00;;;;;;5018030;28;20033;-67
2024/02/12 01:55:16;;;;;;;2.67;2.15;;;18.90;59.00;;;;;;5019024;28;20511;-68
2024/02/12 01:57:44;;;;;;;1.90;1.60;;;18.90;58.90;;;;;;4994803;28;20120;-67
2024/02/12 02:00:11;;;;;;;2.28;1.80;;;18.90;58.90;;;;;;5015002;28;20033;-67
2024/02/12 02:02:43;;;;;;;2.20;1.98;;;19.00;58.80;;;;;;4997351;28;20255;-67
2024/02/12 02:05:10;;;;;;;2.63;1.58;;;19.00;58.80;;;;;;5016683;28;20034;-68
2024/02/12 02:07:36;;;;;;;2.55;1.88;;;19.00;58.70;;;;;;5017881;28;20101;-68
2024/02/12 02:10:01;;;;;;;1.58;1.48;;;19.00;58.60;;;;;;5018455;28;20108;-68
2024/02/12 02:12:27;;;;;;;2.58;1.80;;;19.10;58.50;;;;;;5020447;28;20041;-67
2024/02/12 02:14:53;;;;;;;1.70;1.35;;;19.10;58.50;;;;;;5021064;28;20607;-67
2024/02/12 02:17:20;;;;;;;2.20;1.80;;;19.10;58.40;;;;;;5020407;28;20044;-68
2024/02/12 02:19:48;;;;;;;2.67;1.83;;;19.10;58.30;;;;;;5020129;28;20212;-67
2024/02/12 02:22:17;;;;;;;2.50;1.83;;;19.20;58.20;;;;;;5020596;28;20033;-65
2024/02/12 02:24:42;;;;;;;2.22;1.63;;;19.20;58.20;;;;;;5005724;28;20141;-65
2024/02/12 02:27:10;;;;;;;2.90;1.83;;;19.20;58.10;;;;;;5021586;28;20552;-67
2024/02/12 02:29:39;;;;;;;2.47;1.55;;;19.20;58.00;;;;;;5021116;28;20033;-66
2024/02/12 02:32:04;;;;;;;2.22;1.65;;;19.30;58.00;;;;;;5001388;28;20149;-65
2024/02/12 02:34:30;;;;;;;2.42;1.90;;;19.30;58.00;;;;;;5016691;28;20153;-68
2024/02/12 02:36:56;;;;;;;2.60;1.58;;;19.30;57.90;;;;;;5023048;28;20136;-68
2024/02/12 02:39:22;;;;;;;2.33;1.50;;;19.30;57.90;;;;;;5024026;28;20033;-68
2024/02/12 02:41:48;;;;;;;1.60;1.15;;;19.40;57.90;;;;;;5021298;28;20034;-69
2024/02/12 02:44:14;;;;;;;2.03;1.52;;;19.40;57.80;;;;;;5021352;28;20053;-68
2024/02/12 02:46:40;;;;;;;2.63;1.65;;;19.30;57.80;;;;;;5028272;28;20508;-67
2024/02/12 02:49:05;;;;;;;1.90;1.52;;;19.40;57.80;;;;;;5022406;28;20041;-67
2024/02/12 02:51:31;;;;;;;1.75;1.17;;;19.40;57.70;;;;;;5026569;28;20120;-68
2024/02/12 02:53:57;;;;;;;1.90;1.50;;;19.40;57.70;;;;;;5003928;28;20045;-67
2024/02/12 02:56:23;;;;;;;2.38;1.63;;;19.40;57.70;;;;;;5026087;28;20071;-66
2024/02/12 02:58:52;;;;;;;1.77;1.55;;;19.40;57.60;;;;;;5024046;28;20084;-68
2024/02/12 03:01:19;;;;;;;2.30;1.38;;;19.40;57.60;;;;;;4993986;28;20515;-67
2024/02/12 03:03:45;;;;;;;1.63;1.35;;;19.40;57.60;;;;;;5014890;28;20037;-67
2024/02/12 03:06:14;;;;;;;2.58;1.50;;;19.50;57.70;;;;;;5013364;28;20084;-69
2024/02/12 03:08:40;;;;;;;2.03;1.40;;;19.40;57.60;;;;;;4999963;28;20029;-67
2024/02/12 03:11:06;;;;;;;2.05;1.48;;;19.40;57.70;;;;;;5021725;28;20033;-67
2024/02/12 03:13:31;;;;;;;1.85;1.48;;;19.40;57.60;;;;;;5019431;28;20097;-67
2024/02/12 03:15:57;;;;;;;1.77;1.15;;;19.40;57.60;;;;;;5020767;28;20038;-66
2024/02/12 03:18:23;;;;;;;2.35;1.35;;;19.40;57.60;;;;;;5004369;28;20044;-67
2024/02/12 03:20:49;;;;;;;1.42;1.33;;;19.40;57.70;;;;;;5001998;28;20474;-66
2024/02/12 03:23:14;;;;;;;2.38;1.20;;;19.40;57.70;;;;;;5022664;28;20053;-67
2024/02/12 03:25:40;;;;;;;1.20;1.10;;;19.40;57.80;;;;;;5023991;28;20547;-67
2024/02/12 03:28:06;;;;;;;1.75;1.52;;;19.40;57.80;;;;;;5022160;28;20452;-67
2024/02/12 03:30:31;;;;;;;1.40;1.10;;;19.30;57.80;;;;;;5020872;28;20041;-67
2024/02/12 03:33:02;;;;;;;1.90;1.20;;;19.40;57.90;;;;;;5021923;28;20069;-67
2024/02/12 03:35:27;;;;;;;1.67;1.30;;;19.40;57.90;;;;;;5022416;28;20037;-67
2024/02/12 03:37:53;;;;;;;1.73;1.17;;;19.30;57.90;;;;;;5020999;28;20605;-68
2024/02/12 03:40:18;;;;;;;1.05;0.95;;;19.30;58.00;;;;;;5020663;28;20036;-67
2024/02/12 03:42:44;;;;;;;2.05;1.27;;;19.30;58.00;;;;;;5021889;28;20033;-67
2024/02/12 03:45:13;;;;;;;1.55;1.25;;;19.30;58.00;;;;;;5023270;28;20057;-67
2024/02/12 03:47:39;;;;;;;3.05;1.50;;;19.30;58.10;;;;;;5021422;28;20268;-67
2024/02/12 04:01:08;;;;;;;1.17;1.00;;;19.20;58.20;;;;;;5019546;28;20451;-67
2024/02/12 04:03:33;;;;;;;1.70;1.23;;;19.20;58.20;;;;;;5015550;28;20041;-67
2024/02/12 04:06:00;;;;;;;3.03;1.48;;;19.20;58.20;;;;;;4997678;28;20045;-68
2024/02/12 04:08:26;;;;;;;1.67;1.35;;;19.20;58.30;;;;;;5022022;28;20030;-67
2024/02/12 04:10:51;;;;;;;1.65;1.20;;;19.10;58.20;;;;;;5018973;28;20094;-68
2024/02/12 04:13:19;;;;;;;1.63;1.38;;;19.20;58.20;;;;;;4986875;28;20025;-67
2024/02/12 04:15:44;;;;;;;1.20;0.82;;;19.10;58.20;;;;;;5021609;28;20435;-68
2024/02/12 04:18:10;;;;;;;1.00;0.90;;;19.20;58.30;;;;;;5022131;28;20079;-68
2024/02/12 04:20:37;;;;;;;1.48;1.23;;;19.20;58.30;;;;;;5021712;28;20030;-68
2024/02/12 04:23:03;;;;;;;1.25;0.98;;;19.10;58.80;;;;;;5022847;28;20060;-68
2024/02/12 04:25:31;;;;;;;1.63;1.10;;;19.10;58.20;;;;;;5023929;28;20528;-68
2024/02/12 04:28:00;;;;;;;1.40;1.00;;;19.20;58.30;;;;;;5002242;28;20057;-67
2024/02/12 04:30:26;;;;;;;0.70;0.70;;;19.20;58.30;;;;;;5019787;28;20029;-68
2024/02/12 04:32:51;;;;;;;0.98;0.77;;;19.10;58.20;;;;;;5020641;28;20064;-67
2024/02/12 04:35:17;;;;;;;1.67;1.27;;;19.10;58.20;;;;;;5023563;28;20476;-68
2024/02/12 04:37:45;;;;;;;1.25;0.85;;;19.20;58.20;;;;;;5021801;28;20125;-67
2024/02/12 04:40:12;;;;;;;2.15;1.23;;;19.10;58.20;;;;;;5021271;28;20026;-67
2024/02/12 04:42:38;;;;;;;1.20;0.82;;;19.20;58.30;;;;;;5018412;28;20479;-68
2024/02/12 04:45:04;;;;;;;1.88;1.30;;;19.20;58.80;;;;;;5022410;28;20108;-67
2024/02/12 04:47:29;;;;;;;0.82;0.70;;;19.20;58.20;;;;;;5020247;28;20112;-68
2024/02/12 04:49:54;;;;;;;0.77;0.75;;;19.20;58.20;;;;;;5018669;28;20030;-68
2024/02/12 04:52:20;;;;;;;1.30;1.02;;;19.20;58.20;;;;;;5018805;28;20087;-68
2024/02/12 04:54:45;;;;;;;1.15;0.90;;;19.20;58.10;;;;;;5021174;28;20524;-67
2024/02/12 04:57:11;;;;;;;1.45;1.23;;;19.20;58.20;;;;;;5021955;28;20037;-67
2024/02/12 04:59:37;;;;;;;1.13;0.90;;;19.20;58.20;;;;;;5020982;28;20044;-68
2024/02/12 05:02:04;;;;;;;1.42;1.05;;;19.20;58.10;;;;;;5017446;28;20459;-68
2024/02/12 05:04:30;;;;;;;1.27;0.80;;;19.20;58.10;;;;;;5022141;28;20026;-67
2024/02/12 05:06:55;;;;;;;1.40;0.93;;;19.20;58.10;;;;;;5018364;28;20281;-67
2024/02/12 05:09:21;;;;;;;1.65;1.35;;;19.20;58.10;;;;;;5021337;28;20037;-68
2024/02/12 05:11:46;;;;;;;1.33;0.95;;;19.20;58.00;;;;;;5017397;28;20030;-68
2024/02/12 05:14:12;;;;;;;1.63;0.80;;;19.20;58.00;;;;;;5024396;28;20033;-67
2024/02/12 05:16:38;;;;;;;1.45;1.08;;;19.20;58.00;;;;;;5016929;28;21709;-68
2024/02/12 05:24:34;;;;;;;1.45;0.95;;;19.20;58.00;;;;;;5019592;28;20036;-67
2024/02/12 05:27:00;;;;;;;1.25;0.73;;;19.20;58.00;;;;;;5019415;28;20037;-68
2024/02/12 05:29:26;;;;;;;1.30;1.00;;;19.20;58.00;;;;;;5021241;28;20911;-67
2024/02/12 05:31:53;;;;;;;0.70;0.70;;;19.20;58.00;;;;;;5017747;28;20480;-67
2024/02/12 05:34:20;;;;;;;0.85;0.75;;;19.20;57.90;;;;;;5021305;28;20045;-68
2024/02/12 05:36:53;;;;;;;1.48;0.90;;;19.20;57.90;;;;;;5017992;28;20026;-67
2024/02/12 05:39:19;;;;;;;2.67;0.90;;;19.20;57.90;;;;;;5021160;28;20053;-68
2024/02/12 05:41:46;;;;;;;1.20;0.95;;;19.20;57.90;;;;;;5016407;28;20040;-67
2024/02/12 05:44:12;;;;;;;1.15;0.85;;;19.20;57.90;;;;;;5021473;28;20052;-68
2024/02/12 05:46:38;;;;;;;1.40;0.80;;;19.20;57.90;;;;;;5019706;28;20108;-67
2024/02/12 05:49:06;;;;;;;1.20;0.95;;;19.20;57.90;;;;;;5020600;28;20033;-67
2024/02/12 05:51:32;;;;;;;1.30;0.90;;;19.20;57.90;;;;;;5018873;28;20417;-68
2024/02/12 05:53:58;;;;;;;0.90;0.75;;;19.20;57.90;;;;;;5019395;28;20092;-67
2024/02/12 05:56:24;;;;;;;1.50;1.00;;;19.20;57.90;;;;;;5019041;28;20444;-67
2024/02/12 05:58:50;;;;;;;1.73;1.10;;;19.20;57.90;;;;;;5023286;28;20026;-68
2024/02/12 06:01:16;;;;;;;1.55;0.95;;;19.20;58.00;;;;;;5017543;28;20026;-68
2024/02/12 06:03:42;;;;;;;1.02;0.60;;;19.20;57.90;;;;;;5022368;28;20064;-67
2024/02/12 06:06:08;;;;;;;0.85;0.73;;;19.20;57.90;;;;;;5018673;28;20025;-67
2024/02/12 06:08:33;;;;;;;0.85;0.70;;;19.20;58.00;;;;;;5021944;28;20033;-67
2024/02/12 06:10:58;;;;;;;1.40;0.80;;;19.20;57.90;;;;;;5018847;28;20033;-68
2024/02/12 06:13:24;;;;;;;1.17;1.00;;;19.20;57.90;;;;;;5024321;28;20021;-69
2024/02/12 06:15:50;;;;;;;0.95;0.85;;;19.20;57.90;;;;;;5023074;28;20116;-67
2024/02/12 06:18:16;;;;;;;0.80;0.57;;;19.20;57.90;;;;;;5023596;28;20187;-69
2024/02/12 06:20:41;;;;;;;1.45;0.93;;;19.20;57.90;;;;;;5024628;28;20677;-69
2024/02/12 06:23:07;;;;;;;0.50;0.50;;;19.20;57.90;;;;;;5022170;28;20112;-69
2024/02/12 06:25:33;;;;;;;1.00;0.90;;;19.20;57.90;;;;;;5026465;28;20041;-67
2024/02/12 06:27:59;;;;;;;1.08;0.88;;;19.20;57.90;;;;;;5020790;28;20566;-68
2024/02/12 06:30:24;;;;;;;0.77;0.60;;;19.20;57.90;;;;;;5027994;28;20122;-67
2024/02/12 06:32:50;;;;;;;1.65;0.63;;;19.20;58.00;;;;;;5021024;28;20125;-65
2024/02/12 06:35:16;;;;;;;1.30;0.90;;;19.20;58.00;;;;;;5017083;28;20636;-68
2024/02/12 06:37:46;;;;;;;2.25;0.70;;;19.20;58.00;;;;;;5015546;28;20038;-69
2024/02/12 06:40:12;;;;;;;5.38;1.00;;;19.20;58.30;;;;;;4987249;28;20135;-68
2024/02/12 06:42:37;;;;;;;5.30;0.93;;;19.20;58.70;;;;;;4999748;28;20618;-70
2024/02/12 06:45:03;;;;;;;2.70;1.00;;;19.20;59.10;;;;;;5017134;28;20191;-68
2024/02/12 06:47:29;;;;;;;2.88;0.70;;;19.20;58.60;;;;;;5016605;28;20033;-68
2024/02/12 06:49:55;;;;;;;4.40;1.13;;;19.20;58.40;;;;;;5018291;28;20102;-69
2024/02/12 06:52:20;;;;;;;1.52;1.00;;;19.10;59.30;;;;;;5020661;28;20033;-67
2024/02/12 06:54:47;;;;;;;2.90;1.35;;;19.10;59.10;;;;;;5021230;28;20037;-69
2024/02/12 06:57:13;;;;;;;5.88;0.90;;;19.10;59.40;;;;;;5017488;28;20044;-68
2024/02/12 06:59:45;;;;;;;2.53;0.85;;;19.00;59.20;;;;;;5022947;28;20060;-68
2024/02/12 07:02:10;;;;;;;8.73;2.22;;;19.00;59.00;;;;;;5019704;28;20040;-69
2024/02/12 07:04:36;;;;;;;6.78;3.50;;;19.10;59.90;;;;;;5017514;28;20033;-68
2024/02/12 07:07:03;;;;;;;7.80;2.97;;;19.20;58.90;;;;;;5017957;28;20092;-69
2024/02/12 07:09:28;;;;;;;7.05;3.53;;;19.10;58.60;;;;;;5026589;28;20120;-69
2024/02/12 07:11:54;;;;;;;11.38;5.47;;;19.10;59.50;;;;;;5019173;28;20164;-69
2024/02/12 07:14:20;;;;;;;9.82;5.22;;;19.00;59.50;;;;;;5004059;28;20114;-69
2024/02/12 07:16:45;;;;;;;16.77;6.70;;;19.00;59.60;;;;;;5021285;28;20033;-67
2024/02/12 07:19:11;;;;;;;13.20;6.53;;;19.00;59.50;;;;;;5006619;28;20042;-67
2024/02/12 07:21:36;;;;;;;9.13;5.93;;;19.00;59.30;;;;;;5021867;28;20317;-69
2024/02/12 07:24:04;;;;;;;11.50;5.97;;;19.00;59.50;;;;;;5022466;28;20043;-68
2024/02/12 07:26:30;;;;;;;11.65;5.80;;;19.00;59.40;;;;;;5004620;28;20028;-69
2024/02/12 07:28:55;;;;;;;12.13;5.47;;;19.00;59.30;;;;;;5021119;28;20037;-69
2024/02/12 07:31:21;;;;;;;11.30;5.95;;;19.00;59.50;;;;;;5023818;28;20033;-68
2024/02/12 07:33:46;;;;;;;11.65;5.80;;;19.00;59.40;;;;;;5020185;28;20032;-69
2024/02/12 07:36:12;;;;;;;12.63;5.28;;;18.90;59.30;;;;;;5022535;28;20036;-68
2024/02/12 07:38:38;;;;;;;9.52;4.82;;;19.00;59.30;;;;;;5020000;28;20018;-69
2024/02/12 07:41:04;;;;;;;11.88;5.95;;;19.00;59.20;;;;;;5018966;28;20069;-67
2024/02/12 07:43:30;;;;;;;10.23;4.90;;;19.00;59.30;;;;;;5020586;28;20021;-69
2024/02/12 07:45:55;;;;;;;9.65;4.57;;;19.00;59.20;;;;;;5018424;28;20541;-67
2024/02/12 07:48:21;;;;;;;10.63;5.70;;;19.10;59.70;;;;;;5002898;28;20056;-69
2024/02/12 07:50:51;;;;;;;19.52;7.18;;;19.10;60.00;;;;;;5013581;28;20026;-68
2024/02/12 07:53:18;;;;;;;27.10;9.75;;;19.20;59.70;;;;;;5018573;28;20109;-68
2024/02/12 07:55:43;;;;;;;24.20;8.93;;;19.20;60.00;;;;;;5016943;28;20038;-68
2024/02/12 07:58:09;;;;;;;26.08;9.55;;;19.20;59.90;;;;;;5004626;28;20057;-68
2024/02/12 08:00:34;;;;;;;27.95;10.07;;;19.20;60.10;;;;;;5018818;28;20109;-69
2024/02/12 08:03:00;;;;;;;31.08;9.88;;;19.20;60.20;;;;;;5021260;28;20034;-68
2024/02/12 08:05:25;;;;;;;26.80;8.93;;;19.10;60.30;;;;;;5007489;28;20040;-68
2024/02/12 08:07:50;;;;;;;20.13;8.57;;;19.10;60.30;;;;;;5018409;28;20145;-68
2024/02/12 08:10:16;;;;;;;22.48;8.18;;;19.10;60.30;;;;;;5019049;28;20051;-68
2024/02/12 08:12:42;;;;;;;25.83;7.90;;;19.10;60.60;;;;;;5019636;28;20160;-68
2024/02/12 08:15:09;;;;;;;18.67;7.03;;;19.10;60.80;;;;;;5019223;28;20069;-68
2024/02/12 08:17:35;;;;;;;18.95;7.05;;;19.10;60.90;;;;;;5021619;28;20083;-67
2024/02/12 08:20:04;;;;;;;16.83;6.57;;;19.00;60.90;;;;;;5013805;28;20037;-68
2024/02/12 08:22:29;;;;;;;14.10;5.72;;;19.10;60.90;;;;;;5015678;28;20163;-68
2024/02/12 08:24:55;;;;;;;18.60;6.93;;;19.00;61.10;;;;;;5011781;28;20120;-69
2024/02/12 08:27:20;;;;;;;14.48;6.03;;;19.00;61.70;;;;;;5019082;28;20032;-68
2024/02/12 08:29:47;;;;;;;18.38;6.57;;;19.10;61.10;;;;;;5009517;28;20045;-66
2024/02/12 08:32:13;;;;;;;15.60;5.60;;;19.00;61.00;;;;;;5017018;28;20033;-68
2024/02/12 08:34:40;;;;;;;15.52;6.88;;;19.00;60.90;;;;;;5015539;28;20039;-68
2024/02/12 08:37:07;;;;;;;18.17;5.97;;;19.10;60.80;;;;;;5018886;28;20030;-68
2024/02/12 08:39:32;;;;;;;15.77;5.75;;;19.00;60.80;;;;;;5018616;28;20034;-68
2024/02/12 08:41:58;;;;;;;19.65;6.10;;;19.00;61.40;;;;;;5016376;28;20040;-68
2024/02/12 08:44:26;;;;;;;16.58;5.43;;;19.00;60.70;;;;;;5014691;28;20098;-68
2024/02/12 08:46:51;;;;;;;13.18;5.88;;;19.00;60.60;;;;;;5022018;28;20041;-67
2024/02/12 08:49:17;;;;;;;12.48;5.45;;;19.10;60.70;;;;;;5011968;28;20030;-68
2024/02/12 08:51:42;;;;;;;16.08;5.70;;;19.10;60.60;;;;;;5021229;28;20098;-69
2024/02/12 08:54:08;;;;;;;15.50;6.13;;;19.10;60.40;;;;;;5010383;28;20041;-69
2024/02/12 08:56:37;;;;;;;10.90;4.60;;;19.10;60.50;;;;;;5015655;28;20022;-68
2024/02/12 08:59:06;;;;;;;14.88;5.32;;;19.10;60.30;;;;;;5011173;28;20512;-68
2024/02/12 09:01:32;;;;;;;13.90;4.88;;;19.10;60.40;;;;;;5021447;28;20065;-68
2024/02/12 09:03:57;;;;;;;10.32;4.30;;;19.20;60.30;;;;;;5016511;28;20057;-68
2024/02/12 09:06:23;;;;;;;12.23;4.40;;;19.20;60.10;;;;;;5018699;28;20029;-69
2024/02/12 09:08:48;;;;;;;12.43;4.10;;;19.20;60.00;;;;;;5018951;28;20392;-68
2024/02/12 09:11:14;;;;;;;8.50;3.45;;;19.20;59.90;;;;;;5017152;28;20076;-68
2024/02/12 09:13:42;;;;;;;13.60;3.97;;;19.20;59.90;;;;;;5006813;28;20033;-68
2024/02/12 09:16:08;;;;;;;11.20;4.10;;;19.30;59.70;;;;;;5002429;28;20057;-66
2024/02/12 09:18:37;;;;;;;11.57;4.53;;;19.30;59.70;;;;;;5021985;28;20068;-69
2024/02/12 09:21:03;;;;;;;7.85;4.75;;;19.30;59.50;;;;;;5015859;28;20068;-65
2024/02/12 09:23:30;;;;;;;11.13;4.85;;;19.30;59.40;;;;;;5002038;28;20029;-68
2024/02/12 09:25:56;;;;;;;7.88;3.72;;;19.40;59.30;;;;;;4998677;28;20033;-67
2024/02/12 09:28:23;;;;;;;6.32;3.95;;;19.30;59.40;;;;;;5019562;28;20079;-69
2024/02/12 09:30:49;;;;;;;12.38;4.03;;;19.40;59.20;;;;;;4982842;28;20104;-68
2024/02/12 09:33:15;;;;;;;8.57;3.78;;;19.40;59.30;;;;;;5017082;28;20120;-69
2024/02/12 09:35:42;;;;;;;8.02;4.30;;;19.40;59.10;;;;;;4996030;28;20080;-68
2024/02/12 09:38:11;;;;;;;8.15;3.83;;;19.40;59.10;;;;;;5019657;28;20105;-68
2024/02/12 09:40:41;;;;;;;10.10;3.65;;;19.40;59.00;;;;;;5009031;28;20029;-69
2024/02/12 09:43:09;;;;;;;9.82;3.65;;;19.40;58.90;;;;;;4997898;28;20033;-68
2024/02/12 09:45:40;;;;;;;9.57;3.47;;;19.40;58.90;;;;;;5010527;28;20036;-69
2024/02/12 09:48:08;;;;;;;7.28;3.70;;;19.40;59.00;;;;;;5015591;28;20037;-67
2024/02/12 09:50:35;;;;;;;9.75;3.97;;;19.50;59.00;;;;;;5015758;28;20034;-69
2024/02/12 09:53:01;;;;;;;7.85;3.35;;;19.40;58.80;;;;;;5019474;28;20122;-68
2024/02/12 09:55:28;;;;;;;5.80;3.28;;;19.40;58.90;;;;;;4997758;28;20164;-69
2024/02/12 09:57:53;;;;;;;7.55;3.22;;;19.40;59.00;;;;;;5015214;28;20030;-67
2024/02/12 10:00:19;;;;;;;8.50;3.17;;;19.40;59.00;;;;;;5020027;28;20128;-69
2024/02/12 10:02:45;;;;;;;7.93;2.85;;;19.40;58.90;;;;;;5016044;28;20026;-69
2024/02/12 10:05:18;;;;;;;6.22;2.83;;;19.40;58.90;;;;;;5013591;28;20702;-68
2024/02/12 10:07:43;;;;;;;5.88;3.13;;;19.40;58.90;;;;;;5020477;28;20493;-69
2024/02/12 10:10:12;;;;;;;5.80;2.83;;;19.40;59.50;;;;;;5015653;28;20037;-69
2024/02/12 10:12:37;;;;;;;5.18;3.00;;;19.40;58.80;;;;;;5020636;28;20033;-69
2024/02/12 10:15:07;;;;;;;8.15;3.30;;;19.40;58.90;;;;;;5017756;28;20124;-69
2024/02/12 10:17:33;;;;;;;5.80;2.40;;;19.40;58.90;;;;;;5005014;28;20037;-69
2024/02/12 10:19:59;;;;;;;6.60;2.58;;;19.30;58.90;;;;;;5010553;28;20126;-69
2024/02/12 10:22:24;;;;;;;8.27;2.97;;;19.40;59.00;;;;;;5020850;28;20025;-69
2024/02/12 10:24:50;;;;;;;6.65;2.30;;;19.30;59.00;;;;;;5017359;28;20061;-69
2024/02/12 10:27:20;;;;;;;3.08;2.03;;;19.30;59.00;;;;;;5019949;28;20036;-69
2024/02/12 10:30:01;;;;;;;5.90;2.63;;;19.30;59.00;;;;;;5020441;28;20048;-69
2024/02/12 10:32:27;;;;;;;5.53;2.47;;;19.30;59.00;;;;;;5013803;28;20568;-69
2024/02/12 10:34:56;;;;;;;6.97;2.65;;;19.30;59.00;;;;;;4997957;28;20042;-69
2024/02/12 10:37:25;;;;;;;4.55;2.42;;;19.30;59.10;;;;;;5017809;28;20034;-70
2024/02/12 10:39:52;;;;;;;5.18;1.90;;;19.30;59.00;;;;;;5000272;28;20029;-70
2024/02/12 10:42:36;;;;;;;4.00;2.53;;;19.30;59.10;;;;;;5014894;28;20052;-70
2024/02/12 10:45:06;;;;;;;5.88;2.40;;;19.30;59.30;;;;;;5012628;28;20034;-70
2024/02/12 10:47:32;;;;;;;5.05;2.20;;;19.30;59.40;;;;;;4998759;28;20085;-66
2024/02/12 10:49:59;;;;;;;4.88;2.40;;;19.30;59.40;;;;;;4999466;28;20055;-70
2024/02/12 10:52:26;;;;;;;7.22;2.47;;;19.30;59.50;;;;;;5018614;28;20026;-70
2024/02/12 10:54:52;;;;;;;5.18;1.85;;;19.30;59.50;;;;;;5019432;28;20099;-70
2024/02/12 10:57:18;;;;;;;6.18;2.15;;;19.40;59.60;;;;;;5021111;28;20036;-70
2024/02/12 10:59:43;;;;;;;5.85;2.50;;;19.40;59.70;;;;;;5020230;28;20038;-70
2024/02/12 11:02:11;;;;;;;3.47;1.98;;;19.40;59.60;;;;;;5013428;28;21513;-70
2024/02/12 11:04:40;;;;;;;5.97;2.20;;;19.30;59.70;;;;;;5002038;28;20022;-70
2024/02/12 11:07:24;;;;;;;4.28;2.42;;;19.40;59.70;;;;;;5020635;28;20059;-69
2024/02/12 11:09:57;;;;;;;4.97;2.20;;;19.40;59.70;;;;;;5020259;28;20045;-68
2024/02/12 11:12:22;;;;;;;4.00;1.92;;;19.40;59.60;;;;;;5020331;28;20538;-70
2024/02/12 11:14:50;;;;;;;4.85;1.83;;;19.40;59.50;;;;;;5025548;28;20038;-70
2024/02/12 11:17:20;;;;;;;6.68;2.17;;;19.40;59.50;;;;;;5020135;28;20029;-69
2024/02/12 11:19:49;;;;;;;12.60;1.65;;;19.40;59.50;;;;;;5022683;28;20109;-70
2024/02/12 11:22:28;;;;;;;5.50;2.08;;;19.40;59.60;;;;;;5018537;28;20033;-70
2024/02/12 11:25:03;;;;;;;3.08;2.03;;;19.40;59.70;;;;;;5003065;28;20034;-70
2024/02/12 11:28:02;;;;;;;5.50;2.03;;;19.40;59.60;;;;;;5019738;28;20211;-70
2024/02/12 11:30:28;;;;;;;3.40;1.80;;;19.40;59.70;;;;;;5018165;28;20034;-70
2024/02/12 11:32:59;;;;;;;3.35;1.25;;;19.50;59.90;;;;;;5016946;28;20377;-70
2024/02/12 11:35:25;;;;;;;9.93;1.83;;;19.40;59.80;;;;;;5022178;28;20425;-69
2024/02/12 11:37:57;;;;;;;7.05;1.70;;;19.40;59.80;;;;;;5009244;28;20052;-70
2024/02/12 11:40:22;;;;;;;5.22;1.58;;;19.40;59.80;;;;;;5007332;28;20049;-70
2024/02/12 11:42:52;;;;;;;6.13;2.20;;;19.40;59.90;;;;;;5022239;28;20099;-70
2024/02/12 11:45:18;;;;;;;5.03;1.95;;;19.40;59.80;;;;;;5024433;28;20029;-70
2024/02/12 11:47:46;;;;;;;2.88;1.58;;;19.40;60.10;;;;;;5024794;28;20038;-70
2024/02/12 11:50:25;;;;;;;5.45;1.75;;;19.40;59.90;;;;;;5020512;28;20039;-70
2024/02/12 11:52:52;;;;;;;4.60;1.90;;;19.40;59.80;;;;;;5019922;28;20087;-70
2024/02/12 11:55:20;;;;;;;3.95;1.50;;;19.40;59.70;;;;;;5022185;28;20088;-70
2024/02/12 11:57:47;;;;;;;4.15;1.65;;;19.50;59.80;;;;;;5018527;28;20033;-69
2024/02/12 12:00:20;;;;;;;4.03;1.58;;;19.50;59.80;;;;;;5019367;28;21243;-70
2024/02/12 12:02:47;;;;;;;2.88;1.48;;;19.50;59.70;;;;;;5022154;28;20029;-70
2024/02/12 12:05:15;;;;;;;3.55;1.55;;;19.40;59.70;;;;;;4993879;28;20041;-69
2024/02/12 12:07:41;;;;;;;1.85;1.20;;;19.50;59.80;;;;;;5019188;28;20124;-70
2024/02/12 12:10:10;;;;;;;2.97;1.38;;;19.50;59.70;;;;;;5018828;28;20112;-70
2024/02/12 12:12:38;;;;;;;3.47;1.50;;;19.50;59.70;;;;;;5021092;28;20450;-70
2024/02/12 12:15:06;;;;;;;1.73;1.02;;;19.50;59.70;;;;;;5016220;28;20041;-70
2024/02/12 12:17:35;;;;;;;4.25;1.83;;;19.50;59.70;;;;;;4994456;28;20029;-70
2024/02/12 12:20:01;;;;;;;2.42;1.30;;;19.50;59.60;;;;;;5000035;28;20083;-69
2024/02/12 12:22:29;;;;;;;4.60;1.27;;;19.50;59.60;;;;;;5022009;28;20029;-70
2024/02/12 12:24:55;;;;;;;1.50;1.05;;;19.50;59.60;;;;;;5025758;28;20381;-70
2024/02/12 12:27:24;;;;;;;2.00;1.40;;;19.50;59.50;;;;;;5021251;28;20124;-70
2024/02/12 12:29:54;;;;;;;3.10;1.45;;;19.50;59.40;;;;;;5019088;28;20041;-69
2024/02/12 12:32:20;;;;;;;2.33;1.10;;;19.60;59.50;;;;;;5020638;28;20083;-69
2024/02/12 12:34:46;;;;;;;4.13;1.35;;;19.50;59.40;;;;;;5008583;28;20029;-70
2024/02/12 12:37:13;;;;;;;2.85;1.23;;;19.50;59.50;;;;;;5018175;28;20032;-70
2024/02/12 12:39:39;;;;;;;3.10;1.15;;;19.60;59.50;;;;;;4998413;28;20034;-70
2024/02/12 12:42:07;;;;;;;2.88;0.95;;;19.50;59.40;;;;;;5015882;28;20045;-69
2024/02/12 12:44:34;;;;;;;2.70;1.50;;;19.60;59.50;;;;;;5019391;28;20041;-69
2024/02/12 12:47:00;;;;;;;3.13;1.13;;;19.50;59.40;;;;;;5021312;28;20029;-69
2024/02/12 12:49:26;;;;;;;3.25;1.40;;;19.60;59.50;;;;;;5019405;28;20033;-70
2024/02/12 12:51:54;;;;;;;2.65;1.30;;;19.50;59.40;;;;;;5021346;28;20581;-70
2024/02/12 12:54:20;;;;;;;1.98;0.80;;;19.50;59.30;;;;;;5019061;28;20033;-70
2024/02/12 12:56:48;;;;;;;2.08;1.00;;;19.50;59.40;;;;;;5018594;28;20080;-70
2024/02/12 12:59:14;;;;;;;2.08;1.30;;;19.50;59.30;;;;;;5017451;28;20026;-67